Time;durP1;ratioP1;P1;durP2;ratioP2;P2;SDS_P1;SDS_P2;PMS_P1;PMS_P2;Temp;Humidity;BMP_temperature;BMP_pressure;BME280_temperature;BME280_humidity;BME280_pressure;Samples;Min_cycle;Max_cycle;Signal;HPM_P1;HPM_P2
2023/04/22 00:03:43;;;;;;;0.05;0.05;;;;;;;11.42;100.00;100916.75;10368229;28;20042;-81
2023/04/22 00:08:45;;;;;;;0.00;0.00;;;;;;;11.66;100.00;100918.09;10368910;28;20045;-82
2023/04/22 00:13:46;;;;;;;0.15;0.00;;;;;;;11.17;100.00;100920.44;10340444;28;20554;-82
2023/04/22 00:18:48;;;;;;;0.45;0.30;;;;;;;11.22;100.00;100907.66;10352814;28;20453;-82
2023/04/22 00:23:49;;;;;;;0.00;0.00;;;;;;;11.19;100.00;100903.31;10351780;28;20048;-82
2023/04/22 00:28:51;;;;;;;0.00;0.00;;;;;;;10.72;100.00;100895.31;10359119;28;20046;-82
2023/04/22 00:33:52;;;;;;;0.00;0.00;;;;;;;10.85;100.00;100897.38;10392305;28;20073;-82
2023/04/22 00:38:54;;;;;;;0.00;0.00;;;;;;;10.50;100.00;100893.88;10348387;28;20046;-82
2023/04/22 00:43:56;;;;;;;0.00;0.00;;;;;;;10.72;100.00;100883.28;10371831;28;20106;-82
2023/04/22 00:49:01;;;;;;;0.28;0.28;;;;;;;10.10;100.00;100884.22;10358222;28;20068;-81
2023/04/22 00:54:03;;;;;;;0.00;0.00;;;;;;;10.68;100.00;100883.19;10365549;28;20041;-81
2023/04/22 00:59:07;;;;;;;0.05;0.05;;;;;;;10.92;100.00;100877.75;10390588;28;20040;-81
2023/04/22 01:04:11;;;;;;;0.63;0.17;;;;;;;10.98;100.00;100880.50;10349729;28;20128;-82
2023/04/22 01:09:13;;;;;;;0.17;0.17;;;;;;;10.76;100.00;100872.22;10383512;28;20523;-81
2023/04/22 01:14:15;;;;;;;0.10;0.10;;;;;;;10.57;100.00;100865.75;10348675;28;20049;-81
2023/04/22 01:19:16;;;;;;;0.10;0.00;;;;;;;9.68;100.00;100864.19;10378689;28;20584;-81
2023/04/22 01:24:18;;;;;;;0.25;0.20;;;;;;;9.84;100.00;100866.38;10384810;28;20103;-82
2023/04/22 01:29:20;;;;;;;0.28;0.20;;;;;;;9.30;100.00;100861.34;10384475;28;20124;-81
2023/04/22 01:34:21;;;;;;;0.08;0.08;;;;;;;10.46;100.00;100857.72;10384515;28;20488;-81
2023/04/22 01:39:23;;;;;;;0.20;0.20;;;;;;;10.72;100.00;100859.25;10380204;28;20702;-81
2023/04/22 01:44:25;;;;;;;0.00;0.00;;;;;;;11.16;100.00;100863.69;10368215;28;20048;-82
2023/04/22 01:49:27;;;;;;;0.10;0.10;;;;;;;9.83;100.00;100869.75;10364801;28;20885;-82
2023/04/22 01:54:28;;;;;;;0.10;0.10;;;;;;;10.02;100.00;100867.69;10375033;28;20482;-82
2023/04/22 01:59:30;;;;;;;0.00;0.00;;;;;;;10.02;100.00;100865.13;10372301;28;20045;-82
2023/04/22 02:04:31;;;;;;;0.00;0.00;;;;;;;10.19;100.00;100864.72;10362436;28;20046;-82
2023/04/22 02:09:34;;;;;;;0.00;0.00;;;;;;;9.79;100.00;100860.19;10399940;28;20092;-81
2023/04/22 02:14:35;;;;;;;0.32;0.20;;;;;;;9.82;100.00;100855.16;10391880;28;20050;-82
2023/04/22 02:19:37;;;;;;;0.00;0.00;;;;;;;10.40;100.00;100842.13;10370730;28;20501;-82
2023/04/22 02:24:39;;;;;;;0.57;0.22;;;;;;;10.48;100.00;100838.03;10365165;28;20128;-81
2023/04/22 02:29:41;;;;;;;1.02;0.55;;;;;;;10.74;100.00;100848.13;10358702;28;20132;-81
2023/04/22 02:34:43;;;;;;;0.10;0.10;;;;;;;11.06;100.00;100850.59;10393526;28;20505;-81
2023/04/22 02:39:44;;;;;;;0.35;0.30;;;;;;;11.26;100.00;100842.44;10376400;28;20057;-81
2023/04/22 02:44:46;;;;;;;3.67;1.05;;;;;;;11.46;100.00;100839.41;10354610;28;20132;-82
2023/04/22 02:49:47;;;;;;;0.65;0.52;;;;;;;11.50;100.00;100836.94;10379456;28;20083;-82
2023/04/22 02:54:49;;;;;;;0.43;0.43;;;;;;;11.61;100.00;100850.06;10365690;28;20077;-82
2023/04/22 02:59:50;;;;;;;0.82;0.35;;;;;;;11.46;100.00;100842.00;10368843;28;20041;-81
2023/04/22 03:04:54;;;;;;;0.25;0.15;;;;;;;10.96;100.00;100828.03;10377683;28;20041;-82
2023/04/22 03:09:55;;;;;;;0.60;0.60;;;;;;;10.31;100.00;100816.13;10363183;28;20558;-81
2023/04/22 03:14:57;;;;;;;0.10;0.10;;;;;;;10.63;100.00;100814.38;10366163;28;20520;-81
2023/04/22 03:20:03;;;;;;;0.32;0.30;;;;;;;10.94;100.00;100812.53;10367902;28;20080;-81
2023/04/22 03:25:05;;;;;;;0.77;0.77;;;;;;;11.34;100.00;100812.53;10377926;28;20682;-81
2023/04/22 03:30:08;;;;;;;0.80;0.38;;;;;;;10.44;100.00;100796.72;10361031;28;20041;-81
2023/04/22 03:35:10;;;;;;;0.47;0.22;;;;;;;10.54;100.00;100803.84;10368748;28;20049;-82
2023/04/22 03:40:11;;;;;;;0.25;0.25;;;;;;;11.07;100.00;100794.75;10372104;28;20038;-81
2023/04/22 03:45:14;;;;;;;0.10;0.10;;;;;;;11.09;100.00;100793.94;10390813;28;20073;-81
2023/04/22 03:50:20;;;;;;;0.32;0.32;;;;;;;11.00;100.00;100798.03;10368283;28;20504;-81
2023/04/22 03:55:24;;;;;;;0.05;0.05;;;;;;;11.13;100.00;100794.03;10371176;28;20045;-81
2023/04/22 04:00:27;;;;;;;1.08;0.73;;;;;;;10.99;100.00;100788.56;10342959;28;20271;-81
2023/04/22 04:05:40;;;;;;;0.52;0.52;;;;;;;10.92;100.00;100784.94;10366326;28;20141;-82
2023/04/22 04:10:42;;;;;;;0.55;0.30;;;;;;;11.27;100.00;100772.84;10354169;28;20046;-81
2023/04/22 04:15:45;;;;;;;0.90;0.85;;;;;;;10.97;100.00;100767.91;10353898;28;20073;-81
2023/04/22 04:20:49;;;;;;;0.70;0.65;;;;;;;11.33;100.00;100769.53;10349568;28;20103;-81
2023/04/22 04:25:51;;;;;;;3.33;1.45;;;;;;;11.35;100.00;100770.44;10348833;28;20100;-81
2023/04/22 04:30:53;;;;;;;2.42;0.57;;;;;;;11.32;100.00;100770.34;10366865;28;20042;-81
2023/04/22 04:35:58;;;;;;;1.20;1.10;;;;;;;11.55;100.00;100767.38;10368747;28;20050;-82
2023/04/22 04:41:09;;;;;;;1.05;0.57;;;;;;;11.53;100.00;100771.63;10362269;28;20405;-82
2023/04/22 04:46:12;;;;;;;0.28;0.28;;;;;;;11.38;100.00;100765.31;10374670;28;20136;-82
2023/04/22 04:51:15;;;;;;;0.85;0.82;;;;;;;11.72;100.00;100750.50;10368080;28;20408;-82
2023/04/22 04:56:25;;;;;;;1.10;0.70;;;;;;;11.69;100.00;100753.03;10378491;28;20052;-82
2023/04/22 05:01:27;;;;;;;0.10;0.10;;;;;;;11.49;100.00;100746.63;10375866;28;20475;-82
2023/04/22 05:06:35;;;;;;;0.50;0.50;;;;;;;11.78;100.00;100747.16;10397748;28;20078;-81
2023/04/22 05:11:38;;;;;;;0.50;0.50;;;;;;;11.78;100.00;100754.03;10387824;28;20545;-82
2023/04/22 05:16:47;;;;;;;0.88;0.25;;;;;;;11.34;100.00;100752.31;10353609;28;20512;-82
2023/04/22 05:21:49;;;;;;;0.68;0.63;;;;;;;12.13;100.00;100756.41;10348624;28;20512;-82
2023/04/22 05:26:51;;;;;;;0.70;0.43;;;;;;;11.79;100.00;100755.78;10377531;28;20432;-82
2023/04/22 05:31:54;;;;;;;0.32;0.20;;;;;;;12.04;100.00;100763.16;10362315;28;20128;-82
2023/04/22 05:36:56;;;;;;;1.77;0.52;;;;;;;11.82;100.00;100755.81;10382342;28;20405;-82
2023/04/22 05:41:59;;;;;;;1.20;1.10;;;;;;;12.21;100.00;100757.41;10362948;28;20053;-81
2023/04/22 05:47:02;;;;;;;1.10;0.77;;;;;;;12.13;100.00;100758.97;10348821;28;20038;-81
2023/04/22 05:52:04;;;;;;;0.90;0.63;;;;;;;12.44;100.00;100759.50;10371948;28;20061;-81
2023/04/22 05:57:16;;;;;;;0.40;0.40;;;;;;;12.32;100.00;100753.28;10363395;28;20055;-81
2023/04/22 06:02:18;;;;;;;1.50;0.85;;;;;;;12.81;100.00;100747.97;10371044;28;20552;-81
2023/04/22 06:07:20;;;;;;;1.02;0.32;;;;;;;12.53;100.00;100751.91;10363410;28;20049;-81
2023/04/22 06:12:21;;;;;;;0.70;0.40;;;;;;;13.08;100.00;100753.50;10366387;28;20036;-81
2023/04/22 06:17:23;;;;;;;0.45;0.35;;;;;;;13.13;100.00;100759.63;10353738;28;20073;-81
2023/04/22 06:22:29;;;;;;;0.35;0.32;;;;;;;12.57;100.00;100752.81;10362782;28;20050;-81
2023/04/22 06:27:31;;;;;;;0.68;0.40;;;;;;;13.31;100.00;100733.97;10339389;28;20088;-81
2023/04/22 06:32:32;;;;;;;0.65;0.65;;;;;;;13.46;100.00;100740.22;10348817;28;20050;-81
2023/04/22 06:37:34;;;;;;;0.40;0.40;;;;;;;13.41;100.00;100758.28;10375780;28;20089;-82
2023/04/22 06:42:38;;;;;;;1.50;0.70;;;;;;;13.96;100.00;100745.03;10385575;28;20053;-81
2023/04/22 06:47:58;;;;;;;1.92;0.73;;;;;;;14.16;100.00;100751.25;10357865;28;20054;-81
2023/04/22 06:53:10;;;;;;;0.50;0.43;;;;;;;14.06;100.00;100752.91;10347336;28;20046;-81
2023/04/22 06:58:11;;;;;;;2.60;1.48;;;;;;;13.55;100.00;100742.06;10332666;28;20041;-81
2023/04/22 07:03:13;;;;;;;1.05;0.88;;;;;;;15.17;100.00;100730.34;10358340;28;20046;-81
2023/04/22 07:08:16;;;;;;;1.52;0.90;;;;;;;15.08;100.00;100730.28;10368988;28;20044;-81
2023/04/22 07:13:17;;;;;;;1.10;0.90;;;;;;;14.82;100.00;100723.25;10357159;28;20976;-82
2023/04/22 07:18:19;;;;;;;2.40;1.23;;;;;;;15.71;100.00;100706.25;10367212;28;20038;-81
2023/04/22 07:23:21;;;;;;;1.83;1.27;;;;;;;16.00;100.00;100703.75;10384920;28;20103;-80
2023/04/22 07:28:22;;;;;;;2.63;1.00;;;;;;;16.27;100.00;100695.94;10383047;28;20040;-81
2023/04/22 07:33:24;;;;;;;0.43;0.43;;;;;;;17.08;100.00;100705.28;10382400;28;20132;-80
2023/04/22 07:38:25;;;;;;;0.88;0.75;;;;;;;17.33;100.00;100709.50;10377654;28;20068;-80
2023/04/22 07:43:27;;;;;;;1.70;1.15;;;;;;;17.52;100.00;100698.09;10367726;28;20124;-80
2023/04/22 07:48:28;;;;;;;2.03;0.85;;;;;;;17.98;100.00;100693.47;10382759;28;20657;-80
2023/04/22 07:53:30;;;;;;;0.75;0.50;;;;;;;18.30;100.00;100677.53;10373500;28;20133;-80
2023/04/22 07:58:31;;;;;;;0.77;0.47;;;;;;;17.05;100.00;100666.25;10388754;28;20107;-81
2023/04/22 08:03:33;;;;;;;0.68;0.40;;;;;;;18.54;100.00;100678.16;10372998;28;20676;-80
2023/04/22 08:08:34;;;;;;;0.80;0.40;;;;;;;18.98;100.00;100661.16;10371162;28;20123;-80
2023/04/22 08:13:36;;;;;;;1.00;0.52;;;;;;;17.53;100.00;100670.34;10386480;28;20393;-80
2023/04/22 08:18:38;;;;;;;1.50;0.75;;;;;;;18.67;100.00;100660.66;10366080;28;20536;-80
2023/04/22 08:23:39;;;;;;;0.45;0.45;;;;;;;18.28;100.00;100684.50;10374418;28;20057;-81
2023/04/22 08:28:41;;;;;;;0.30;0.30;;;;;;;17.71;100.00;100677.16;10395570;28;20622;-80
2023/04/22 08:33:42;;;;;;;0.30;0.28;;;;;;;18.42;100.00;100687.00;10396139;28;20033;-80
2023/04/22 08:38:44;;;;;;;0.28;0.20;;;;;;;19.41;100.00;100674.50;10391701;28;20524;-80
2023/04/22 08:43:48;;;;;;;0.85;0.80;;;;;;;19.12;100.00;100676.66;10376757;28;20041;-81
2023/04/22 08:48:49;;;;;;;1.23;0.73;;;;;;;18.30;100.00;100655.81;10380816;28;20042;-81
2023/04/22 08:53:51;;;;;;;0.43;0.30;;;;;;;18.75;100.00;100650.97;10381513;28;20045;-82
2023/04/22 08:58:53;;;;;;;1.50;0.63;;;;;;;17.91;100.00;100648.31;10362800;28;20105;-81
2023/04/22 09:03:58;;;;;;;0.50;0.50;;;;;;;18.48;100.00;100644.34;10368386;28;20472;-81
2023/04/22 09:09:00;;;;;;;0.30;0.30;;;;;;;19.45;100.00;100624.81;10374597;28;20052;-81
2023/04/22 09:14:03;;;;;;;1.52;0.70;;;;;;;19.51;100.00;100623.84;10362748;28;20660;-81
2023/04/22 09:19:04;;;;;;;1.23;0.60;;;;;;;19.92;100.00;100629.31;10356422;28;20053;-81
2023/04/22 09:24:08;;;;;;;0.60;0.43;;;;;;;20.92;100.00;100619.56;10385592;28;20045;-81
2023/04/22 09:29:13;;;;;;;0.88;0.63;;;;;;;20.92;100.00;100611.69;10383787;28;20049;-80
2023/04/22 09:34:15;;;;;;;1.20;0.95;;;;;;;19.93;100.00;100629.28;10374204;28;20456;-80
2023/04/22 09:39:16;;;;;;;1.08;0.90;;;;;;;20.36;100.00;100624.19;10381985;28;20144;-80
2023/04/22 09:44:18;;;;;;;0.70;0.32;;;;;;;20.96;100.00;100616.88;10391561;28;20132;-80
2023/04/22 09:49:20;;;;;;;0.20;0.20;;;;;;;21.00;100.00;100613.28;10387575;28;20049;-80
2023/04/22 09:54:22;;;;;;;0.75;0.30;;;;;;;22.67;100.00;100598.59;10375439;28;20061;-80
2023/04/22 09:59:27;;;;;;;3.30;0.55;;;;;;;22.14;100.00;100602.66;10391237;28;20050;-80
2023/04/22 10:04:30;;;;;;;0.57;0.57;;;;;;;22.25;100.00;100593.63;10367865;28;20060;-80
2023/04/22 10:09:31;;;;;;;0.45;0.20;;;;;;;21.55;100.00;100593.66;10372703;28;20136;-80
2023/04/22 10:14:33;;;;;;;0.35;0.32;;;;;;;21.08;100.00;100598.25;10379391;28;20045;-82
2023/04/22 10:19:35;;;;;;;0.43;0.38;;;;;;;21.45;100.00;100592.16;10368253;28;20057;-82
2023/04/22 10:24:39;;;;;;;0.55;0.35;;;;;;;21.99;100.00;100582.94;10359033;28;20038;-83
2023/04/22 10:29:42;;;;;;;2.40;0.57;;;;;;;21.99;100.00;100587.34;10356739;28;20221;-83
2023/04/22 10:34:47;;;;;;;0.65;0.50;;;;;;;23.70;100.00;100576.13;10382929;28;20114;-83
2023/04/22 10:40:15;;;;;;;0.40;0.30;;;;;;;21.67;100.00;100582.00;10364496;28;20055;-83
2023/04/22 10:45:17;;;;;;;0.25;0.25;;;;;;;22.22;100.00;100562.25;10391447;28;20054;-84
2023/04/22 10:50:27;;;;;;;0.70;0.60;;;;;;;22.72;100.00;100561.69;10384041;28;20128;-81
2023/04/22 10:55:51;;;;;;;1.30;1.05;;;;;;;22.60;100.00;100562.94;10389191;28;20088;-80
2023/04/22 11:01:01;;;;;;;0.45;0.32;;;;;;;22.23;99.94;100566.59;10385779;28;20045;-80
2023/04/22 11:06:17;;;;;;;0.38;0.22;;;;;;;22.96;100.00;100560.09;10384665;28;20065;-81
2023/04/22 11:11:19;;;;;;;0.85;0.50;;;;;;;23.68;100.00;100564.78;10367599;28;20121;-80
2023/04/22 11:16:21;;;;;;;0.60;0.43;;;;;;;23.10;100.00;100557.88;10342254;28;20077;-80
2023/04/22 11:21:23;;;;;;;0.45;0.40;;;;;;;22.62;100.00;100555.84;10367014;28;20061;-80
2023/04/22 11:26:34;;;;;;;0.63;0.50;;;;;;;23.18;100.00;100565.53;10366623;28;20076;-79
2023/04/22 11:31:35;;;;;;;0.82;0.40;;;;;;;23.66;100.00;100558.69;10368255;28;20053;-80
2023/04/22 11:36:37;;;;;;;0.40;0.25;;;;;;;22.53;100.00;100569.25;10353695;28;20056;-80
2023/04/22 11:41:40;;;;;;;1.13;0.85;;;;;;;22.02;100.00;100561.00;10359848;28;20048;-80
2023/04/22 11:46:43;;;;;;;0.68;0.35;;;;;;;21.14;100.00;100571.94;10377927;28;20061;-80
2023/04/22 11:51:55;;;;;;;0.40;0.20;;;;;;;21.91;100.00;100573.56;10357682;28;20120;-79
2023/04/22 11:56:56;;;;;;;1.08;0.40;;;;;;;22.47;100.00;100565.06;10369290;28;20128;-79
2023/04/22 12:02:03;;;;;;;0.55;0.47;;;;;;;21.83;100.00;100558.91;10368132;28;20149;-79
2023/04/22 12:07:05;;;;;;;1.50;0.82;;;;;;;21.64;100.00;100560.25;10362909;28;20416;-79
2023/04/22 12:12:06;;;;;;;0.30;0.25;;;;;;;21.51;100.00;100552.69;10337708;28;20042;-79
2023/04/22 12:17:09;;;;;;;0.45;0.25;;;;;;;21.39;100.00;100550.38;10385833;28;20041;-80
2023/04/22 12:22:10;;;;;;;0.60;0.60;;;;;;;20.78;100.00;100545.69;10366912;28;20049;-80
2023/04/22 12:27:12;;;;;;;1.85;0.90;;;;;;;21.21;100.00;100536.81;10359647;28;20185;-81
2023/04/22 12:32:13;;;;;;;0.52;0.47;;;;;;;21.67;100.00;100533.97;10371995;28;20060;-79
2023/04/22 12:37:16;;;;;;;0.98;0.47;;;;;;;21.15;100.00;100533.50;10347977;28;20440;-80
2023/04/22 12:42:18;;;;;;;0.85;0.47;;;;;;;22.96;100.00;100518.06;10366217;28;20102;-80
2023/04/22 12:47:19;;;;;;;0.80;0.43;;;;;;;23.03;100.00;100514.31;10361819;28;20145;-79
2023/04/22 12:52:21;;;;;;;0.52;0.52;;;;;;;22.10;100.00;100526.72;10360726;28;20042;-80
2023/04/22 12:57:22;;;;;;;0.22;0.22;;;;;;;22.28;100.00;100525.31;10377019;28;20041;-79
2023/04/22 13:02:24;;;;;;;0.68;0.57;;;;;;;21.77;100.00;100524.09;10368657;28;20455;-79
2023/04/22 13:07:26;;;;;;;0.47;0.38;;;;;;;21.87;100.00;100521.19;10364658;28;20038;-80
2023/04/22 13:12:27;;;;;;;0.10;0.10;;;;;;;22.41;100.00;100512.75;10360324;28;20435;-80
2023/04/22 13:17:29;;;;;;;0.43;0.35;;;;;;;21.65;100.00;100523.53;10375192;28;20153;-81
2023/04/22 13:22:32;;;;;;;0.95;0.47;;;;;;;21.95;100.00;100509.63;10391812;28;20080;-81
2023/04/22 13:27:34;;;;;;;0.52;0.43;;;;;;;21.88;100.00;100501.09;10379138;28;20056;-80
2023/04/22 13:32:36;;;;;;;1.13;0.52;;;;;;;22.19;100.00;100500.19;10385004;28;20073;-81
2023/04/22 13:37:38;;;;;;;0.60;0.28;;;;;;;22.43;100.00;100490.78;10371566;28;20545;-79
2023/04/22 13:42:39;;;;;;;1.48;0.35;;;;;;;21.14;100.00;100503.81;10374277;28;20558;-80
2023/04/22 13:47:41;;;;;;;3.92;1.48;;;;;;;20.77;100.00;100494.22;10356860;28;20058;-81
2023/04/22 13:52:42;;;;;;;0.80;0.47;;;;;;;21.43;100.00;100502.22;10368259;28;20140;-80
2023/04/22 13:57:44;;;;;;;0.85;0.60;;;;;;;21.66;100.00;100492.94;10390727;28;20038;-81
2023/04/22 14:02:46;;;;;;;0.30;0.20;;;;;;;21.32;100.00;100507.75;10367642;28;20079;-80
2023/04/22 14:07:47;;;;;;;0.65;0.40;;;;;;;20.10;100.00;100518.28;10376410;28;20493;-80
2023/04/22 14:12:49;;;;;;;0.70;0.38;;;;;;;19.41;100.00;100530.81;10380488;28;20042;-80
2023/04/22 14:17:52;;;;;;;0.65;0.57;;;;;;;18.96;100.00;100531.53;10369890;28;20075;-79
2023/04/22 14:22:54;;;;;;;0.20;0.20;;;;;;;18.35;100.00;100555.81;10371585;28;20042;-80
2023/04/22 14:27:56;;;;;;;1.38;0.77;;;;;;;18.61;100.00;100556.34;10366318;28;20339;-81
2023/04/22 14:32:57;;;;;;;0.98;0.68;;;;;;;18.29;100.00;100558.47;10371167;28;20409;-82
2023/04/22 14:38:00;;;;;;;0.10;0.10;;;;;;;18.16;100.00;100567.31;10378647;28;20504;-80
2023/04/22 14:43:04;;;;;;;0.73;0.63;;;;;;;18.04;100.00;100571.78;10402017;28;20046;-81
2023/04/22 14:48:06;;;;;;;2.38;0.80;;;;;;;17.42;100.00;100574.91;10399311;28;20822;-81
2023/04/22 14:53:07;;;;;;;0.47;0.38;;;;;;;17.25;100.00;100592.38;10375552;28;20038;-80
2023/04/22 14:58:09;;;;;;;0.50;0.50;;;;;;;17.46;100.00;100588.75;10399266;28;20564;-80
2023/04/22 15:03:10;;;;;;;2.35;0.63;;;;;;;17.95;100.00;100587.50;10388083;28;20045;-79
2023/04/22 15:08:12;;;;;;;0.20;0.20;;;;;;;17.29;100.00;100591.50;10370376;28;20052;-80
2023/04/22 15:13:13;;;;;;;0.63;0.57;;;;;;;17.63;100.00;100591.22;10358253;28;20038;-80
2023/04/22 15:18:15;;;;;;;0.90;0.70;;;;;;;18.80;100.00;100588.28;10368390;28;20073;-80
2023/04/22 15:23:16;;;;;;;1.25;0.70;;;;;;;18.32;100.00;100600.16;10383996;28;20528;-80
2023/04/22 15:28:18;;;;;;;0.88;0.70;;;;;;;18.15;100.00;100599.47;10366365;28;20445;-80
2023/04/22 15:33:20;;;;;;;1.15;0.63;;;;;;;18.85;100.00;100591.69;10387697;28;20121;-81
2023/04/22 15:38:21;;;;;;;0.45;0.45;;;;;;;18.27;100.00;100594.16;10353484;28;20137;-81
2023/04/22 15:43:22;;;;;;;1.73;0.82;;;;;;;17.81;100.00;100591.97;10388352;28;20050;-81
2023/04/22 15:48:24;;;;;;;0.63;0.50;;;;;;;18.74;100.00;100583.13;10372735;28;20121;-81
2023/04/22 15:53:25;;;;;;;1.70;0.63;;;;;;;18.01;100.00;100590.06;10330726;28;20085;-80
2023/04/22 15:58:27;;;;;;;2.25;0.90;;;;;;;16.80;100.00;100593.47;10349663;28;20393;-82
2023/04/22 16:03:32;;;;;;;1.65;0.90;;;;;;;16.49;100.00;100593.59;10377975;28;20052;-82
2023/04/22 16:08:36;;;;;;;0.95;0.65;;;;;;;16.25;100.00;100578.94;10364439;28;20060;-81
2023/04/22 16:13:37;;;;;;;0.40;0.40;;;;;;;16.52;100.00;100578.84;10363037;28;20116;-81
2023/04/22 16:18:39;;;;;;;1.10;0.45;;;;;;;15.91;100.00;100580.75;10356162;28;20045;-82
2023/04/22 16:23:44;;;;;;;0.20;0.20;;;;;;;16.07;100.00;100585.06;10348712;28;20052;-82
2023/04/22 16:28:46;;;;;;;0.20;0.20;;;;;;;16.44;100.00;100582.34;10367991;28;20484;-82
2023/04/22 16:33:49;;;;;;;0.90;0.35;;;;;;;16.39;100.00;100573.72;10342997;28;20513;-81
2023/04/22 16:38:50;;;;;;;0.00;0.00;;;;;;;16.42;100.00;100570.22;10371535;28;20050;-81
2023/04/22 16:43:52;;;;;;;0.45;0.20;;;;;;;16.31;100.00;100570.28;10361443;28;20129;-80
2023/04/22 16:48:53;;;;;;;0.15;0.15;;;;;;;16.17;100.00;100567.69;10359553;28;20431;-81
2023/04/22 16:53:55;;;;;;;0.00;0.00;;;;;;;16.06;100.00;100562.53;10398780;28;20053;-82
2023/04/22 16:58:56;;;;;;;0.20;0.20;;;;;;;15.87;100.00;100561.69;10378068;28;20041;-81
2023/04/22 17:03:58;;;;;;;0.10;0.10;;;;;;;16.40;100.00;100557.25;10364912;28;20045;-81
2023/04/22 17:09:00;;;;;;;0.52;0.35;;;;;;;16.61;100.00;100558.03;10388854;28;20045;-82
2023/04/22 17:14:02;;;;;;;0.30;0.22;;;;;;;16.07;100.00;100548.66;10362719;28;20042;-82
2023/04/22 17:19:04;;;;;;;1.00;0.75;;;;;;;15.95;100.00;100564.28;10355575;28;20065;-81
2023/04/22 17:24:06;;;;;;;0.15;0.10;;;;;;;15.95;100.00;100565.16;10379971;28;20053;-80
2023/04/22 17:29:07;;;;;;;0.00;0.00;;;;;;;15.90;100.00;100556.50;10365380;28;20051;-80
2023/04/22 17:34:09;;;;;;;0.15;0.08;;;;;;;16.28;100.00;100557.28;10371769;28;20114;-81
2023/04/22 17:39:10;;;;;;;0.50;0.22;;;;;;;16.34;100.00;100554.69;10366659;28;20516;-82
2023/04/22 17:44:12;;;;;;;0.98;0.40;;;;;;;15.92;100.00;100559.09;10389094;28;20041;-81
2023/04/22 17:49:13;;;;;;;0.13;0.13;;;;;;;16.11;100.00;100555.59;10380381;28;20045;-81
2023/04/22 17:54:15;;;;;;;0.77;0.40;;;;;;;15.95;100.00;100548.72;10380567;28;20049;-81
2023/04/22 17:59:17;;;;;;;0.20;0.17;;;;;;;16.30;100.00;100550.34;10392793;28;20125;-82
2023/04/22 18:04:19;;;;;;;0.10;0.10;;;;;;;16.29;100.00;100553.81;10377262;28;20038;-81
2023/04/22 18:09:20;;;;;;;0.65;0.65;;;;;;;16.05;100.00;100550.41;10376674;28;20783;-82
2023/04/22 18:14:22;;;;;;;0.93;0.68;;;;;;;16.28;100.00;100552.06;10372715;28;20527;-81
2023/04/22 18:19:23;;;;;;;2.42;0.82;;;;;;;16.30;100.00;100551.22;10390502;28;20156;-82
2023/04/22 18:24:25;;;;;;;0.15;0.13;;;;;;;16.61;100.00;100571.88;10372271;28;20038;-82
2023/04/22 18:29:26;;;;;;;0.20;0.20;;;;;;;16.80;100.00;100590.88;10375441;28;20072;-81
2023/04/22 18:34:28;;;;;;;0.17;0.17;;;;;;;16.15;100.00;100619.69;10386503;28;20069;-80
2023/04/22 18:39:30;;;;;;;0.30;0.30;;;;;;;16.16;100.00;100624.03;10384215;28;20045;-81
2023/04/22 18:44:31;;;;;;;8.73;1.05;;;;;;;15.45;100.00;100639.56;10369197;28;20045;-81
2023/04/22 18:49:33;;;;;;;1.23;1.15;;;;;;;15.20;100.00;100642.13;10363788;28;20073;-80
2023/04/22 18:54:34;;;;;;;0.68;0.57;;;;;;;15.36;100.00;100655.16;10366024;28;20382;-80
2023/04/22 18:59:36;;;;;;;0.85;0.50;;;;;;;15.52;100.00;100669.00;10363031;28;20060;-80
2023/04/22 19:04:38;;;;;;;1.17;0.55;;;;;;;15.05;100.00;100678.41;10359374;28;20125;-81
2023/04/22 19:09:40;;;;;;;0.57;0.50;;;;;;;15.20;100.00;100678.47;10381164;28;20045;-81
2023/04/22 19:14:41;;;;;;;1.13;0.65;;;;;;;15.09;100.00;100690.50;10360633;28;20048;-81
2023/04/22 19:19:43;;;;;;;1.13;0.63;;;;;;;15.29;100.00;100707.91;10375715;28;20516;-81
2023/04/22 19:24:47;;;;;;;0.70;0.50;;;;;;;15.25;100.00;100706.13;10368831;28;20497;-80
2023/04/22 19:29:50;;;;;;;1.48;0.60;;;;;;;15.30;100.00;100702.72;10354026;28;20076;-80
2023/04/22 19:34:52;;;;;;;3.67;0.95;;;;;;;14.98;100.00;100708.63;10383318;28;20046;-80
2023/04/22 19:39:53;;;;;;;1.48;0.98;;;;;;;14.87;100.00;100716.38;10378682;28;20500;-80
2023/04/22 19:44:57;;;;;;;1.13;0.80;;;;;;;14.59;100.00;100723.97;10365803;28;20424;-81
2023/04/22 19:49:59;;;;;;;1.02;0.20;;;;;;;14.39;100.00;100726.41;10376004;28;20046;-81
2023/04/22 19:55:08;;;;;;;2.55;1.67;;;;;;;14.23;100.00;100735.78;10379148;28;20377;-81
2023/04/22 20:00:10;;;;;;;2.30;0.95;;;;;;;13.73;100.00;100736.22;10371516;28;20511;-81
2023/04/22 20:05:15;;;;;;;0.73;0.73;;;;;;;13.66;100.00;100748.22;10400192;28;20038;-80
2023/04/22 20:10:17;;;;;;;1.40;0.70;;;;;;;13.49;100.00;100755.78;10389275;28;20053;-82
2023/04/22 20:15:19;;;;;;;1.80;1.30;;;;;;;13.35;100.00;100759.91;10381058;28;20530;-80
2023/04/22 20:20:22;;;;;;;1.65;1.15;;;;;;;13.21;100.00;100770.06;10390078;28;20099;-81
2023/04/22 20:25:24;;;;;;;2.70;2.22;;;;;;;13.12;100.00;100773.41;10383224;28;20128;-81
2023/04/22 20:30:26;;;;;;;1.48;1.38;;;;;;;12.90;100.00;100767.94;10378214;28;20128;-81
2023/04/22 20:35:28;;;;;;;1.75;1.50;;;;;;;12.96;100.00;100773.19;10365768;28;20535;-79
2023/04/22 20:40:31;;;;;;;2.45;1.60;;;;;;;12.98;100.00;100776.69;10399130;28;20074;-80
2023/04/22 20:45:33;;;;;;;2.20;1.70;;;;;;;13.13;100.00;100785.50;10395980;28;20069;-80
2023/04/22 20:50:34;;;;;;;1.48;1.08;;;;;;;13.09;100.00;100781.13;10397781;28;20509;-80
2023/04/22 20:55:36;;;;;;;3.15;1.65;;;;;;;13.24;100.00;100783.91;10381604;28;20045;-81
2023/04/22 21:00:37;;;;;;;2.10;1.75;;;;;;;13.25;100.00;100785.66;10376199;28;20040;-80
2023/04/22 21:05:41;;;;;;;2.75;1.63;;;;;;;13.56;100.00;100780.00;10383590;28;20072;-80
2023/04/22 21:10:46;;;;;;;1.75;1.42;;;;;;;12.98;100.00;100792.22;10398151;28;20064;-80
2023/04/22 21:15:58;;;;;;;3.50;2.28;;;;;;;12.70;100.00;100796.94;10388069;28;20042;-81
2023/04/22 21:21:03;;;;;;;4.00;2.03;;;;;;;12.99;100.00;100788.75;10359851;28;20053;-80
2023/04/22 21:26:05;;;;;;;4.38;1.75;;;;;;;13.03;100.00;100794.81;10380486;28;20084;-81
2023/04/22 21:31:07;;;;;;;2.80;2.00;;;;;;;13.01;100.00;100799.97;10353320;28;20077;-80
2023/04/22 21:36:09;;;;;;;1.48;1.27;;;;;;;12.89;100.00;100799.81;10362367;28;20041;-80
2023/04/22 21:41:10;;;;;;;2.25;1.73;;;;;;;13.13;100.00;100806.19;10384387;28;20052;-80
2023/04/22 21:46:12;;;;;;;2.40;1.75;;;;;;;12.57;100.00;100815.69;10386288;28;20049;-81
2023/04/22 21:51:13;;;;;;;1.92;1.60;;;;;;;11.88;100.00;100817.88;10371977;28;20466;-81
2023/04/22 21:56:15;;;;;;;5.70;2.58;;;;;;;12.02;100.00;100816.50;10354911;28;20046;-79
2023/04/22 22:01:16;;;;;;;2.55;1.30;;;;;;;11.67;100.00;100834.69;10366113;28;20432;-81
2023/04/22 22:06:18;;;;;;;6.22;2.65;;;;;;;11.65;100.00;100814.88;10352127;28;20390;-80
2023/04/22 22:11:20;;;;;;;5.65;2.10;;;;;;;11.76;100.00;100828.88;10362808;28;20157;-80
2023/04/22 22:16:32;;;;;;;2.05;1.17;;;;;;;11.58;100.00;100829.34;10348229;28;20123;-81
2023/04/22 22:21:33;;;;;;;4.05;2.40;;;;;;;11.81;100.00;100826.34;10352699;28;20045;-81
2023/04/22 22:26:35;;;;;;;4.55;1.85;;;;;;;11.93;100.00;100826.59;10352919;28;20482;-80
2023/04/22 22:31:36;;;;;;;3.03;2.00;;;;;;;11.96;100.00;100821.47;10351836;28;20053;-81
2023/04/22 22:36:38;;;;;;;2.17;1.58;;;;;;;11.14;100.00;100826.69;10368248;28;20096;-80
2023/04/22 22:41:40;;;;;;;1.75;1.48;;;;;;;10.39;100.00;100817.19;10351454;28;20042;-80
2023/04/22 22:46:44;;;;;;;3.78;2.70;;;;;;;10.83;100.00;100820.84;10358857;28;20141;-80
2023/04/22 22:51:46;;;;;;;3.65;2.30;;;;;;;11.75;100.00;100827.97;10368606;28;20044;-80
2023/04/22 22:56:47;;;;;;;6.13;2.88;;;;;;;10.87;100.00;100831.22;10334238;28;20401;-80